sensor_id;sensor_type;location;lat;lon;timestamp;P1;durP1;ratioP1;P2;durP2;ratioP2
47764;SDS011;33529;49.242;8.670;2023-12-14T00:02:00;7.70;;;6.50;;
47764;SDS011;33529;49.242;8.670;2023-12-14T00:04:27;9.30;;;6.43;;
47764;SDS011;33529;49.242;8.670;2023-12-14T00:06:54;8.63;;;6.05;;
47764;SDS011;33529;49.242;8.670;2023-12-14T00:09:20;7.40;;;5.70;;
47764;SDS011;33529;49.242;8.670;2023-12-14T00:11:47;8.82;;;6.97;;
47764;SDS011;33529;49.242;8.670;2023-12-14T00:14:16;9.27;;;6.35;;
47764;SDS011;33529;49.242;8.670;2023-12-14T00:16:44;8.45;;;5.88;;
47764;SDS011;33529;49.242;8.670;2023-12-14T00:19:10;7.28;;;5.78;;
47764;SDS011;33529;49.242;8.670;2023-12-14T00:21:37;7.93;;;6.00;;
47764;SDS011;33529;49.242;8.670;2023-12-14T00:24:04;7.20;;;6.50;;
47764;SDS011;33529;49.242;8.670;2023-12-14T00:26:31;7.32;;;5.88;;
47764;SDS011;33529;49.242;8.670;2023-12-14T00:28:59;9.48;;;6.72;;
47764;SDS011;33529;49.242;8.670;2023-12-14T00:31:27;7.78;;;6.05;;
47764;SDS011;33529;49.242;8.670;2023-12-14T00:33:54;8.48;;;6.25;;
47764;SDS011;33529;49.242;8.670;2023-12-14T00:36:22;8.15;;;6.93;;
47764;SDS011;33529;49.242;8.670;2023-12-14T00:38:49;8.85;;;6.50;;
47764;SDS011;33529;49.242;8.670;2023-12-14T00:41:15;7.82;;;6.32;;
47764;SDS011;33529;49.242;8.670;2023-12-14T00:43:42;8.05;;;7.22;;
47764;SDS011;33529;49.242;8.670;2023-12-14T00:46:09;9.15;;;7.13;;
47764;SDS011;33529;49.242;8.670;2023-12-14T00:48:37;10.32;;;7.90;;
47764;SDS011;33529;49.242;8.670;2023-12-14T00:51:04;10.63;;;8.65;;
47764;SDS011;33529;49.242;8.670;2023-12-14T00:53:32;10.82;;;8.52;;
47764;SDS011;33529;49.242;8.670;2023-12-14T00:55:58;9.30;;;7.95;;
47764;SDS011;33529;49.242;8.670;2023-12-14T00:58:26;9.63;;;7.68;;
47764;SDS011;33529;49.242;8.670;2023-12-14T01:00:53;10.05;;;8.20;;
47764;SDS011;33529;49.242;8.670;2023-12-14T01:03:21;13.45;;;8.95;;
47764;SDS011;33529;49.242;8.670;2023-12-14T01:05:48;11.27;;;7.85;;
47764;SDS011;33529;49.242;8.670;2023-12-14T01:08:15;10.95;;;8.73;;
47764;SDS011;33529;49.242;8.670;2023-12-14T01:10:42;12.40;;;9.07;;
47764;SDS011;33529;49.242;8.670;2023-12-14T01:13:10;10.27;;;8.50;;
47764;SDS011;33529;49.242;8.670;2023-12-14T01:15:37;9.63;;;8.13;;
47764;SDS011;33529;49.242;8.670;2023-12-14T01:18:04;10.50;;;8.23;;
47764;SDS011;33529;49.242;8.670;2023-12-14T01:20:31;10.48;;;8.20;;
47764;SDS011;33529;49.242;8.670;2023-12-14T01:22:58;9.93;;;7.57;;
47764;SDS011;33529;49.242;8.670;2023-12-14T01:25:25;10.57;;;8.65;;
47764;SDS011;33529;49.242;8.670;2023-12-14T01:27:52;9.90;;;8.40;;
47764;SDS011;33529;49.242;8.670;2023-12-14T01:30:19;10.15;;;8.27;;
47764;SDS011;33529;49.242;8.670;2023-12-14T01:32:46;10.93;;;8.50;;
47764;SDS011;33529;49.242;8.670;2023-12-14T01:35:12;10.55;;;8.63;;
47764;SDS011;33529;49.242;8.670;2023-12-14T01:37:39;14.68;;;9.43;;
47764;SDS011;33529;49.242;8.670;2023-12-14T01:40:06;10.60;;;8.18;;
47764;SDS011;33529;49.242;8.670;2023-12-14T01:42:34;11.48;;;8.43;;
47764;SDS011;33529;49.242;8.670;2023-12-14T01:45:01;9.80;;;7.75;;
47764;SDS011;33529;49.242;8.670;2023-12-14T01:47:28;11.65;;;8.27;;
47764;SDS011;33529;49.242;8.670;2023-12-14T01:49:55;10.85;;;7.28;;
47764;SDS011;33529;49.242;8.670;2023-12-14T01:52:22;10.07;;;7.60;;
47764;SDS011;33529;49.242;8.670;2023-12-14T01:54:49;10.32;;;8.40;;
47764;SDS011;33529;49.242;8.670;2023-12-14T01:57:16;10.75;;;8.93;;
47764;SDS011;33529;49.242;8.670;2023-12-14T01:59:43;9.27;;;8.15;;
47764;SDS011;33529;49.242;8.670;2023-12-14T02:02:10;11.20;;;8.75;;
47764;SDS011;33529;49.242;8.670;2023-12-14T02:04:37;12.48;;;9.02;;
47764;SDS011;33529;49.242;8.670;2023-12-14T02:07:04;11.10;;;8.90;;
47764;SDS011;33529;49.242;8.670;2023-12-14T02:09:31;11.05;;;9.32;;
47764;SDS011;33529;49.242;8.670;2023-12-14T02:11:59;10.02;;;8.80;;
47764;SDS011;33529;49.242;8.670;2023-12-14T02:14:26;11.20;;;8.63;;
47764;SDS011;33529;49.242;8.670;2023-12-14T02:16:53;12.32;;;9.52;;
47764;SDS011;33529;49.242;8.670;2023-12-14T02:19:22;11.95;;;9.68;;
47764;SDS011;33529;49.242;8.670;2023-12-14T02:21:49;10.70;;;9.23;;
47764;SDS011;33529;49.242;8.670;2023-12-14T02:24:16;10.32;;;9.23;;
47764;SDS011;33529;49.242;8.670;2023-12-14T02:26:43;12.68;;;10.27;;
47764;SDS011;33529;49.242;8.670;2023-12-14T02:29:29;15.18;;;10.77;;
47764;SDS011;33529;49.242;8.670;2023-12-14T02:31:58;12.48;;;10.85;;
47764;SDS011;33529;49.242;8.670;2023-12-14T02:34:25;15.43;;;11.82;;
47764;SDS011;33529;49.242;8.670;2023-12-14T02:36:52;16.95;;;12.48;;
47764;SDS011;33529;49.242;8.670;2023-12-14T02:39:19;15.15;;;12.52;;
47764;SDS011;33529;49.242;8.670;2023-12-14T02:41:46;16.45;;;12.70;;
47764;SDS011;33529;49.242;8.670;2023-12-14T02:44:13;15.60;;;13.05;;
47764;SDS011;33529;49.242;8.670;2023-12-14T02:46:39;15.65;;;13.55;;
47764;SDS011;33529;49.242;8.670;2023-12-14T02:49:07;16.65;;;12.52;;
47764;SDS011;33529;49.242;8.670;2023-12-14T02:51:34;22.67;;;14.80;;
47764;SDS011;33529;49.242;8.670;2023-12-14T02:54:01;17.55;;;14.63;;
47764;SDS011;33529;49.242;8.670;2023-12-14T02:56:28;15.85;;;14.02;;
47764;SDS011;33529;49.242;8.670;2023-12-14T02:58:55;18.75;;;14.40;;
47764;SDS011;33529;49.242;8.670;2023-12-14T03:01:22;16.92;;;14.23;;
47764;SDS011;33529;49.242;8.670;2023-12-14T03:03:49;16.92;;;14.25;;
47764;SDS011;33529;49.242;8.670;2023-12-14T03:06:15;19.55;;;14.77;;
47764;SDS011;33529;49.242;8.670;2023-12-14T03:08:42;18.55;;;14.90;;
47764;SDS011;33529;49.242;8.670;2023-12-14T03:11:09;15.68;;;13.98;;
47764;SDS011;33529;49.242;8.670;2023-12-14T03:13:36;18.40;;;15.07;;
47764;SDS011;33529;49.242;8.670;2023-12-14T03:16:04;18.38;;;15.18;;
47764;SDS011;33529;49.242;8.670;2023-12-14T03:18:31;17.02;;;15.18;;
47764;SDS011;33529;49.242;8.670;2023-12-14T03:20:58;18.65;;;14.35;;
47764;SDS011;33529;49.242;8.670;2023-12-14T03:23:25;19.80;;;16.33;;
47764;SDS011;33529;49.242;8.670;2023-12-14T03:25:52;17.90;;;15.35;;
47764;SDS011;33529;49.242;8.670;2023-12-14T03:28:18;18.08;;;15.10;;
47764;SDS011;33529;49.242;8.670;2023-12-14T03:30:45;19.52;;;15.43;;
47764;SDS011;33529;49.242;8.670;2023-12-14T03:33:12;17.45;;;15.63;;
47764;SDS011;33529;49.242;8.670;2023-12-14T03:35:39;16.50;;;14.13;;
47764;SDS011;33529;49.242;8.670;2023-12-14T03:38:08;18.92;;;15.63;;
47764;SDS011;33529;49.242;8.670;2023-12-14T03:40:35;16.70;;;14.65;;
47764;SDS011;33529;49.242;8.670;2023-12-14T03:43:02;21.23;;;16.02;;
47764;SDS011;33529;49.242;8.670;2023-12-14T03:45:29;20.52;;;16.17;;
47764;SDS011;33529;49.242;8.670;2023-12-14T03:47:56;17.45;;;15.55;;
47764;SDS011;33529;49.242;8.670;2023-12-14T03:50:23;19.50;;;16.00;;
47764;SDS011;33529;49.242;8.670;2023-12-14T03:52:50;19.77;;;16.85;;
47764;SDS011;33529;49.242;8.670;2023-12-14T03:55:17;19.58;;;15.77;;
47764;SDS011;33529;49.242;8.670;2023-12-14T03:57:44;18.20;;;16.23;;
47764;SDS011;33529;49.242;8.670;2023-12-14T04:00:11;18.42;;;15.55;;
47764;SDS011;33529;49.242;8.670;2023-12-14T04:02:39;19.52;;;16.35;;
47764;SDS011;33529;49.242;8.670;2023-12-14T04:05:06;20.98;;;15.73;;
47764;SDS011;33529;49.242;8.670;2023-12-14T04:07:35;20.75;;;16.88;;
47764;SDS011;33529;49.242;8.670;2023-12-14T04:10:03;20.33;;;17.08;;
47764;SDS011;33529;49.242;8.670;2023-12-14T04:12:30;18.73;;;16.52;;
47764;SDS011;33529;49.242;8.670;2023-12-14T04:14:57;19.98;;;16.50;;
47764;SDS011;33529;49.242;8.670;2023-12-14T04:17:23;19.90;;;16.90;;
47764;SDS011;33529;49.242;8.670;2023-12-14T04:19:51;19.83;;;16.70;;
47764;SDS011;33529;49.242;8.670;2023-12-14T04:22:17;19.98;;;16.02;;
47764;SDS011;33529;49.242;8.670;2023-12-14T04:24:44;21.52;;;16.48;;
47764;SDS011;33529;49.242;8.670;2023-12-14T04:27:11;19.85;;;15.90;;
47764;SDS011;33529;49.242;8.670;2023-12-14T04:29:38;20.55;;;15.48;;
47764;SDS011;33529;49.242;8.670;2023-12-14T04:32:05;22.00;;;17.52;;
47764;SDS011;33529;49.242;8.670;2023-12-14T04:34:32;24.85;;;18.27;;
47764;SDS011;33529;49.242;8.670;2023-12-14T04:36:59;25.85;;;19.17;;
47764;SDS011;33529;49.242;8.670;2023-12-14T04:39:26;22.40;;;17.92;;
47764;SDS011;33529;49.242;8.670;2023-12-14T04:41:53;20.95;;;17.30;;
47764;SDS011;33529;49.242;8.670;2023-12-14T04:44:21;21.35;;;17.67;;
47764;SDS011;33529;49.242;8.670;2023-12-14T04:46:48;20.27;;;17.25;;
47764;SDS011;33529;49.242;8.670;2023-12-14T04:49:15;23.38;;;17.52;;
47764;SDS011;33529;49.242;8.670;2023-12-14T04:51:42;20.15;;;16.42;;
47764;SDS011;33529;49.242;8.670;2023-12-14T04:54:08;22.33;;;17.98;;
47764;SDS011;33529;49.242;8.670;2023-12-14T04:56:35;21.02;;;16.83;;
47764;SDS011;33529;49.242;8.670;2023-12-14T04:59:02;23.13;;;17.08;;
47764;SDS011;33529;49.242;8.670;2023-12-14T05:01:29;20.50;;;18.23;;
47764;SDS011;33529;49.242;8.670;2023-12-14T05:03:59;19.83;;;17.50;;
47764;SDS011;33529;49.242;8.670;2023-12-14T05:06:27;21.23;;;18.02;;
47764;SDS011;33529;49.242;8.670;2023-12-14T05:08:54;19.88;;;16.50;;
47764;SDS011;33529;49.242;8.670;2023-12-14T05:11:22;20.75;;;18.48;;
47764;SDS011;33529;49.242;8.670;2023-12-14T05:13:49;23.90;;;19.55;;
47764;SDS011;33529;49.242;8.670;2023-12-14T05:16:16;23.60;;;19.45;;
47764;SDS011;33529;49.242;8.670;2023-12-14T05:18:42;22.48;;;18.17;;
47764;SDS011;33529;49.242;8.670;2023-12-14T05:21:09;23.00;;;18.63;;
47764;SDS011;33529;49.242;8.670;2023-12-14T05:23:36;23.10;;;18.83;;
47764;SDS011;33529;49.242;8.670;2023-12-14T05:26:03;20.17;;;17.48;;
47764;SDS011;33529;49.242;8.670;2023-12-14T05:28:30;24.02;;;18.50;;
47764;SDS011;33529;49.242;8.670;2023-12-14T05:30:57;23.55;;;18.73;;
47764;SDS011;33529;49.242;8.670;2023-12-14T05:33:24;22.77;;;18.23;;
47764;SDS011;33529;49.242;8.670;2023-12-14T05:35:50;23.30;;;18.08;;
47764;SDS011;33529;49.242;8.670;2023-12-14T05:38:17;22.50;;;19.17;;
47764;SDS011;33529;49.242;8.670;2023-12-14T05:40:44;23.33;;;19.00;;
47764;SDS011;33529;49.242;8.670;2023-12-14T05:43:11;25.05;;;18.55;;
47764;SDS011;33529;49.242;8.670;2023-12-14T05:45:38;24.20;;;19.85;;
47764;SDS011;33529;49.242;8.670;2023-12-14T05:48:05;23.05;;;19.58;;
47764;SDS011;33529;49.242;8.670;2023-12-14T05:50:32;23.33;;;19.00;;
47764;SDS011;33529;49.242;8.670;2023-12-14T05:52:58;24.30;;;19.17;;
47764;SDS011;33529;49.242;8.670;2023-12-14T05:55:25;24.60;;;18.92;;
47764;SDS011;33529;49.242;8.670;2023-12-14T05:57:52;23.85;;;19.20;;
47764;SDS011;33529;49.242;8.670;2023-12-14T06:00:21;25.38;;;19.58;;
47764;SDS011;33529;49.242;8.670;2023-12-14T06:02:48;26.73;;;20.65;;
47764;SDS011;33529;49.242;8.670;2023-12-14T06:05:18;26.88;;;20.70;;
47764;SDS011;33529;49.242;8.670;2023-12-14T06:07:45;25.48;;;20.42;;
47764;SDS011;33529;49.242;8.670;2023-12-14T06:10:12;23.48;;;19.77;;
47764;SDS011;33529;49.242;8.670;2023-12-14T06:12:39;24.63;;;19.58;;
47764;SDS011;33529;49.242;8.670;2023-12-14T06:15:06;23.17;;;19.33;;
47764;SDS011;33529;49.242;8.670;2023-12-14T06:17:33;23.15;;;19.00;;
47764;SDS011;33529;49.242;8.670;2023-12-14T06:20:00;30.73;;;23.33;;
47764;SDS011;33529;49.242;8.670;2023-12-14T06:22:27;28.92;;;21.55;;
47764;SDS011;33529;49.242;8.670;2023-12-14T06:24:54;27.67;;;20.85;;
47764;SDS011;33529;49.242;8.670;2023-12-14T06:27:21;26.35;;;20.52;;
47764;SDS011;33529;49.242;8.670;2023-12-14T06:29:53;26.63;;;21.77;;
47764;SDS011;33529;49.242;8.670;2023-12-14T06:32:20;27.65;;;22.75;;
47764;SDS011;33529;49.242;8.670;2023-12-14T06:34:47;27.90;;;22.42;;
47764;SDS011;33529;49.242;8.670;2023-12-14T06:37:14;26.08;;;21.23;;
47764;SDS011;33529;49.242;8.670;2023-12-14T06:39:41;24.45;;;19.88;;
47764;SDS011;33529;49.242;8.670;2023-12-14T06:42:08;26.00;;;21.45;;
47764;SDS011;33529;49.242;8.670;2023-12-14T06:44:35;27.10;;;22.27;;
47764;SDS011;33529;49.242;8.670;2023-12-14T06:47:03;25.45;;;21.00;;
47764;SDS011;33529;49.242;8.670;2023-12-14T06:49:30;26.30;;;20.85;;
47764;SDS011;33529;49.242;8.670;2023-12-14T06:51:57;26.20;;;20.85;;
47764;SDS011;33529;49.242;8.670;2023-12-14T06:54:42;23.90;;;20.15;;
47764;SDS011;33529;49.242;8.670;2023-12-14T06:57:09;25.75;;;20.02;;
47764;SDS011;33529;49.242;8.670;2023-12-14T06:59:36;24.88;;;20.65;;
47764;SDS011;33529;49.242;8.670;2023-12-14T07:02:03;25.13;;;20.90;;
47764;SDS011;33529;49.242;8.670;2023-12-14T07:04:30;26.02;;;21.10;;
47764;SDS011;33529;49.242;8.670;2023-12-14T07:06:57;27.27;;;21.67;;
47764;SDS011;33529;49.242;8.670;2023-12-14T07:09:24;26.77;;;21.23;;
47764;SDS011;33529;49.242;8.670;2023-12-14T07:11:51;26.00;;;20.85;;
47764;SDS011;33529;49.242;8.670;2023-12-14T07:14:19;25.58;;;20.67;;
47764;SDS011;33529;49.242;8.670;2023-12-14T07:16:50;26.00;;;20.20;;
47764;SDS011;33529;49.242;8.670;2023-12-14T07:19:17;28.40;;;21.48;;
47764;SDS011;33529;49.242;8.670;2023-12-14T07:21:43;28.92;;;23.08;;
47764;SDS011;33529;49.242;8.670;2023-12-14T07:24:10;24.33;;;20.70;;
47764;SDS011;33529;49.242;8.670;2023-12-14T07:26:37;25.80;;;21.05;;
47764;SDS011;33529;49.242;8.670;2023-12-14T07:29:04;24.52;;;19.70;;
47764;SDS011;33529;49.242;8.670;2023-12-14T07:31:31;26.55;;;21.02;;
47764;SDS011;33529;49.242;8.670;2023-12-14T07:34:00;26.38;;;21.30;;
47764;SDS011;33529;49.242;8.670;2023-12-14T07:36:27;25.08;;;21.20;;
47764;SDS011;33529;49.242;8.670;2023-12-14T07:38:53;27.92;;;21.17;;
47764;SDS011;33529;49.242;8.670;2023-12-14T07:41:21;27.02;;;21.33;;
47764;SDS011;33529;49.242;8.670;2023-12-14T07:43:52;27.30;;;21.80;;
47764;SDS011;33529;49.242;8.670;2023-12-14T07:46:19;29.52;;;22.58;;
47764;SDS011;33529;49.242;8.670;2023-12-14T07:48:46;33.22;;;25.70;;
47764;SDS011;33529;49.242;8.670;2023-12-14T07:51:14;28.67;;;21.73;;
47764;SDS011;33529;49.242;8.670;2023-12-14T07:53:40;28.65;;;22.10;;
47764;SDS011;33529;49.242;8.670;2023-12-14T07:56:09;27.77;;;21.35;;
47764;SDS011;33529;49.242;8.670;2023-12-14T07:58:36;25.38;;;21.42;;
47764;SDS011;33529;49.242;8.670;2023-12-14T08:01:03;26.75;;;22.42;;
47764;SDS011;33529;49.242;8.670;2023-12-14T08:03:30;25.17;;;21.52;;
47764;SDS011;33529;49.242;8.670;2023-12-14T08:05:56;28.77;;;22.20;;
47764;SDS011;33529;49.242;8.670;2023-12-14T08:08:23;24.98;;;21.13;;
47764;SDS011;33529;49.242;8.670;2023-12-14T08:10:50;29.23;;;23.02;;
47764;SDS011;33529;49.242;8.670;2023-12-14T08:13:17;27.23;;;21.45;;
47764;SDS011;33529;49.242;8.670;2023-12-14T08:15:45;27.70;;;22.65;;
47764;SDS011;33529;49.242;8.670;2023-12-14T08:18:12;27.65;;;22.25;;
47764;SDS011;33529;49.242;8.670;2023-12-14T08:20:39;25.02;;;20.92;;
47764;SDS011;33529;49.242;8.670;2023-12-14T08:23:05;24.67;;;20.20;;
47764;SDS011;33529;49.242;8.670;2023-12-14T08:25:33;25.60;;;21.55;;
47764;SDS011;33529;49.242;8.670;2023-12-14T08:28:00;26.48;;;21.45;;
47764;SDS011;33529;49.242;8.670;2023-12-14T08:30:30;25.70;;;19.93;;
47764;SDS011;33529;49.242;8.670;2023-12-14T08:32:57;24.73;;;21.17;;
47764;SDS011;33529;49.242;8.670;2023-12-14T08:35:24;27.30;;;20.77;;
47764;SDS011;33529;49.242;8.670;2023-12-14T08:37:51;24.50;;;19.08;;
47764;SDS011;33529;49.242;8.670;2023-12-14T08:40:18;23.05;;;19.75;;
47764;SDS011;33529;49.242;8.670;2023-12-14T08:42:46;27.23;;;20.08;;
47764;SDS011;33529;49.242;8.670;2023-12-14T08:45:13;24.55;;;20.55;;
47764;SDS011;33529;49.242;8.670;2023-12-14T08:47:40;23.42;;;19.20;;
47764;SDS011;33529;49.242;8.670;2023-12-14T08:50:07;23.25;;;18.95;;
47764;SDS011;33529;49.242;8.670;2023-12-14T08:52:35;24.17;;;19.45;;
47764;SDS011;33529;49.242;8.670;2023-12-14T08:55:02;23.80;;;19.13;;
47764;SDS011;33529;49.242;8.670;2023-12-14T08:57:29;25.52;;;20.08;;
47764;SDS011;33529;49.242;8.670;2023-12-14T08:59:57;25.10;;;19.08;;
47764;SDS011;33529;49.242;8.670;2023-12-14T09:02:25;23.60;;;19.02;;
47764;SDS011;33529;49.242;8.670;2023-12-14T09:04:52;28.45;;;20.98;;
47764;SDS011;33529;49.242;8.670;2023-12-14T09:07:19;26.13;;;19.63;;
47764;SDS011;33529;49.242;8.670;2023-12-14T09:09:46;27.67;;;20.33;;
47764;SDS011;33529;49.242;8.670;2023-12-14T09:12:13;26.00;;;21.98;;
47764;SDS011;33529;49.242;8.670;2023-12-14T09:14:39;25.35;;;20.17;;
47764;SDS011;33529;49.242;8.670;2023-12-14T09:17:08;24.35;;;18.92;;
47764;SDS011;33529;49.242;8.670;2023-12-14T09:19:35;24.75;;;19.05;;
47764;SDS011;33529;49.242;8.670;2023-12-14T09:22:02;26.08;;;20.17;;
47764;SDS011;33529;49.242;8.670;2023-12-14T09:24:29;24.25;;;18.27;;
47764;SDS011;33529;49.242;8.670;2023-12-14T09:26:56;24.58;;;20.10;;
47764;SDS011;33529;49.242;8.670;2023-12-14T09:29:23;24.85;;;20.08;;
47764;SDS011;33529;49.242;8.670;2023-12-14T09:31:50;25.02;;;19.27;;
47764;SDS011;33529;49.242;8.670;2023-12-14T09:34:17;23.27;;;18.27;;
47764;SDS011;33529;49.242;8.670;2023-12-14T09:36:44;26.40;;;18.00;;
47764;SDS011;33529;49.242;8.670;2023-12-14T09:39:11;22.45;;;18.38;;
47764;SDS011;33529;49.242;8.670;2023-12-14T09:41:38;21.60;;;17.42;;
47764;SDS011;33529;49.242;8.670;2023-12-14T09:44:06;23.90;;;18.17;;
47764;SDS011;33529;49.242;8.670;2023-12-14T09:46:35;22.35;;;17.45;;
47764;SDS011;33529;49.242;8.670;2023-12-14T09:49:04;22.08;;;17.55;;
47764;SDS011;33529;49.242;8.670;2023-12-14T09:51:34;21.77;;;17.67;;
47764;SDS011;33529;49.242;8.670;2023-12-14T09:54:02;24.88;;;19.58;;
47764;SDS011;33529;49.242;8.670;2023-12-14T09:56:29;22.63;;;17.30;;
47764;SDS011;33529;49.242;8.670;2023-12-14T09:58:56;22.77;;;18.08;;
47764;SDS011;33529;49.242;8.670;2023-12-14T10:01:26;20.98;;;17.75;;
47764;SDS011;33529;49.242;8.670;2023-12-14T10:04:06;22.85;;;17.80;;
47764;SDS011;33529;49.242;8.670;2023-12-14T10:06:37;21.95;;;17.88;;
47764;SDS011;33529;49.242;8.670;2023-12-14T10:09:05;20.38;;;17.58;;
47764;SDS011;33529;49.242;8.670;2023-12-14T10:11:36;21.52;;;17.25;;
47764;SDS011;33529;49.242;8.670;2023-12-14T10:14:03;21.83;;;17.00;;
47764;SDS011;33529;49.242;8.670;2023-12-14T10:19:12;20.90;;;16.85;;
47764;SDS011;33529;49.242;8.670;2023-12-14T10:21:39;21.33;;;17.25;;
47764;SDS011;33529;49.242;8.670;2023-12-14T10:24:07;19.60;;;15.77;;
47764;SDS011;33529;49.242;8.670;2023-12-14T10:26:34;23.20;;;17.20;;
47764;SDS011;33529;49.242;8.670;2023-12-14T10:29:02;21.02;;;17.10;;
47764;SDS011;33529;49.242;8.670;2023-12-14T10:31:31;20.42;;;16.58;;
47764;SDS011;33529;49.242;8.670;2023-12-14T10:33:58;24.88;;;16.88;;
47764;SDS011;33529;49.242;8.670;2023-12-14T10:36:25;19.20;;;15.98;;
47764;SDS011;33529;49.242;8.670;2023-12-14T10:38:52;19.30;;;16.17;;
47764;SDS011;33529;49.242;8.670;2023-12-14T10:41:23;20.60;;;16.13;;
47764;SDS011;33529;49.242;8.670;2023-12-14T10:43:51;20.20;;;15.10;;
47764;SDS011;33529;49.242;8.670;2023-12-14T10:46:41;19.77;;;15.88;;
47764;SDS011;33529;49.242;8.670;2023-12-14T10:49:09;18.05;;;14.85;;
47764;SDS011;33529;49.242;8.670;2023-12-14T10:51:37;19.40;;;13.93;;
47764;SDS011;33529;49.242;8.670;2023-12-14T10:56:35;17.95;;;13.93;;
47764;SDS011;33529;49.242;8.670;2023-12-14T10:59:03;17.58;;;15.43;;
47764;SDS011;33529;49.242;8.670;2023-12-14T11:01:32;17.05;;;15.00;;
47764;SDS011;33529;49.242;8.670;2023-12-14T11:04:01;18.83;;;15.18;;
47764;SDS011;33529;49.242;8.670;2023-12-14T11:06:29;18.48;;;14.27;;
47764;SDS011;33529;49.242;8.670;2023-12-14T11:09:00;20.08;;;14.55;;
47764;SDS011;33529;49.242;8.670;2023-12-14T11:11:42;20.13;;;16.38;;
47764;SDS011;33529;49.242;8.670;2023-12-14T11:14:26;22.92;;;17.83;;
47764;SDS011;33529;49.242;8.670;2023-12-14T11:16:54;20.60;;;17.20;;
47764;SDS011;33529;49.242;8.670;2023-12-14T11:24:23;17.88;;;13.25;;
47764;SDS011;33529;49.242;8.670;2023-12-14T11:26:52;17.67;;;13.48;;
47764;SDS011;33529;49.242;8.670;2023-12-14T11:29:21;16.00;;;12.70;;
47764;SDS011;33529;49.242;8.670;2023-12-14T11:31:49;13.68;;;11.05;;
47764;SDS011;33529;49.242;8.670;2023-12-14T11:34:16;12.45;;;9.15;;
47764;SDS011;33529;49.242;8.670;2023-12-14T11:36:43;13.82;;;10.45;;
47764;SDS011;33529;49.242;8.670;2023-12-14T11:39:12;11.10;;;8.90;;
47764;SDS011;33529;49.242;8.670;2023-12-14T11:41:39;13.55;;;9.82;;
47764;SDS011;33529;49.242;8.670;2023-12-14T11:44:05;11.73;;;9.45;;
47764;SDS011;33529;49.242;8.670;2023-12-14T11:46:33;12.07;;;9.20;;
47764;SDS011;33529;49.242;8.670;2023-12-14T11:49:00;12.23;;;10.07;;
47764;SDS011;33529;49.242;8.670;2023-12-14T11:51:30;14.52;;;9.90;;
47764;SDS011;33529;49.242;8.670;2023-12-14T11:54:00;13.80;;;10.55;;
47764;SDS011;33529;49.242;8.670;2023-12-14T11:56:27;12.82;;;9.43;;
47764;SDS011;33529;49.242;8.670;2023-12-14T11:58:54;13.15;;;10.52;;
47764;SDS011;33529;49.242;8.670;2023-12-14T12:01:21;12.25;;;10.40;;
47764;SDS011;33529;49.242;8.670;2023-12-14T12:03:49;13.20;;;10.23;;
47764;SDS011;33529;49.242;8.670;2023-12-14T12:06:34;14.38;;;11.18;;
47764;SDS011;33529;49.242;8.670;2023-12-14T12:09:03;15.10;;;11.68;;
47764;SDS011;33529;49.242;8.670;2023-12-14T12:11:34;14.10;;;11.80;;
47764;SDS011;33529;49.242;8.670;2023-12-14T12:14:02;18.67;;;11.90;;
47764;SDS011;33529;49.242;8.670;2023-12-14T12:16:32;16.00;;;11.63;;
47764;SDS011;33529;49.242;8.670;2023-12-14T12:18:58;15.98;;;12.52;;
47764;SDS011;33529;49.242;8.670;2023-12-14T12:21:25;19.80;;;14.27;;
47764;SDS011;33529;49.242;8.670;2023-12-14T12:23:52;18.20;;;13.48;;
47764;SDS011;33529;49.242;8.670;2023-12-14T12:26:19;17.25;;;14.27;;
47764;SDS011;33529;49.242;8.670;2023-12-14T12:28:46;18.95;;;14.95;;
47764;SDS011;33529;49.242;8.670;2023-12-14T12:31:15;17.77;;;13.77;;
47764;SDS011;33529;49.242;8.670;2023-12-14T12:33:41;18.23;;;14.32;;
47764;SDS011;33529;49.242;8.670;2023-12-14T12:36:08;16.63;;;13.88;;
47764;SDS011;33529;49.242;8.670;2023-12-14T12:38:36;18.92;;;14.70;;
47764;SDS011;33529;49.242;8.670;2023-12-14T12:41:06;18.10;;;14.60;;
47764;SDS011;33529;49.242;8.670;2023-12-14T12:43:33;21.95;;;16.27;;
47764;SDS011;33529;49.242;8.670;2023-12-14T12:46:00;18.65;;;15.30;;
47764;SDS011;33529;49.242;8.670;2023-12-14T12:48:27;20.20;;;16.55;;
47764;SDS011;33529;49.242;8.670;2023-12-14T12:50:54;18.92;;;14.38;;
47764;SDS011;33529;49.242;8.670;2023-12-14T12:53:21;20.00;;;15.80;;
47764;SDS011;33529;49.242;8.670;2023-12-14T12:55:48;18.42;;;13.80;;
47764;SDS011;33529;49.242;8.670;2023-12-14T12:58:15;19.55;;;15.30;;
47764;SDS011;33529;49.242;8.670;2023-12-14T13:00:42;19.33;;;15.10;;
47764;SDS011;33529;49.242;8.670;2023-12-14T13:03:08;17.10;;;14.23;;
47764;SDS011;33529;49.242;8.670;2023-12-14T13:05:36;18.67;;;13.45;;
47764;SDS011;33529;49.242;8.670;2023-12-14T13:08:03;16.88;;;13.40;;
47764;SDS011;33529;49.242;8.670;2023-12-14T13:10:30;16.27;;;12.80;;
47764;SDS011;33529;49.242;8.670;2023-12-14T13:12:58;18.95;;;13.43;;
47764;SDS011;33529;49.242;8.670;2023-12-14T13:15:26;18.75;;;13.90;;
47764;SDS011;33529;49.242;8.670;2023-12-14T13:17:55;19.63;;;13.25;;
47764;SDS011;33529;49.242;8.670;2023-12-14T13:20:23;16.70;;;13.82;;
47764;SDS011;33529;49.242;8.670;2023-12-14T13:22:50;18.80;;;13.30;;
47764;SDS011;33529;49.242;8.670;2023-12-14T13:25:17;17.08;;;13.40;;
47764;SDS011;33529;49.242;8.670;2023-12-14T13:27:44;15.85;;;12.30;;
47764;SDS011;33529;49.242;8.670;2023-12-14T13:30:11;16.60;;;12.93;;
47764;SDS011;33529;49.242;8.670;2023-12-14T13:32:44;22.20;;;13.85;;
47764;SDS011;33529;49.242;8.670;2023-12-14T13:35:11;19.48;;;13.23;;
47764;SDS011;33529;49.242;8.670;2023-12-14T13:37:38;16.17;;;12.27;;
47764;SDS011;33529;49.242;8.670;2023-12-14T13:40:05;15.38;;;11.65;;
47764;SDS011;33529;49.242;8.670;2023-12-14T13:42:33;18.67;;;13.00;;
47764;SDS011;33529;49.242;8.670;2023-12-14T13:45:03;18.65;;;14.10;;
47764;SDS011;33529;49.242;8.670;2023-12-14T13:47:30;19.88;;;14.27;;
47764;SDS011;33529;49.242;8.670;2023-12-14T13:49:57;16.90;;;13.38;;
47764;SDS011;33529;49.242;8.670;2023-12-14T13:52:24;19.15;;;14.00;;
47764;SDS011;33529;49.242;8.670;2023-12-14T13:54:55;16.17;;;12.73;;
47764;SDS011;33529;49.242;8.670;2023-12-14T13:57:22;17.95;;;13.77;;
47764;SDS011;33529;49.242;8.670;2023-12-14T13:59:49;19.15;;;14.70;;
47764;SDS011;33529;49.242;8.670;2023-12-14T14:02:15;17.83;;;13.38;;
47764;SDS011;33529;49.242;8.670;2023-12-14T14:04:42;18.05;;;12.68;;
47764;SDS011;33529;49.242;8.670;2023-12-14T14:07:12;17.77;;;13.80;;
47764;SDS011;33529;49.242;8.670;2023-12-14T14:09:40;19.85;;;14.10;;
47764;SDS011;33529;49.242;8.670;2023-12-14T14:12:08;19.02;;;13.55;;
47764;SDS011;33529;49.242;8.670;2023-12-14T14:14:35;21.98;;;14.05;;
47764;SDS011;33529;49.242;8.670;2023-12-14T14:17:02;15.38;;;13.50;;
47764;SDS011;33529;49.242;8.670;2023-12-14T14:19:29;18.67;;;13.50;;
47764;SDS011;33529;49.242;8.670;2023-12-14T14:21:56;19.17;;;13.98;;
47764;SDS011;33529;49.242;8.670;2023-12-14T14:24:23;20.48;;;13.93;;
47764;SDS011;33529;49.242;8.670;2023-12-14T14:26:50;17.67;;;12.95;;
47764;SDS011;33529;49.242;8.670;2023-12-14T14:29:17;18.45;;;13.05;;
47764;SDS011;33529;49.242;8.670;2023-12-14T14:31:45;19.70;;;13.23;;
47764;SDS011;33529;49.242;8.670;2023-12-14T14:34:12;16.90;;;12.13;;
47764;SDS011;33529;49.242;8.670;2023-12-14T14:36:39;19.15;;;13.73;;
47764;SDS011;33529;49.242;8.670;2023-12-14T14:39:06;16.27;;;12.25;;